Candelaria, Brazil
Current Conditions -  °F | °C
As of 8:00 AM on Thursday 23 Oct 2014 (Local Time) from SBSM Reporting Station
Few Clouds Few Clouds  
Wind Chill: 68°   Ceiling: Unl
Heat Index: 68°   Visibility: 6mi
Dew Point: 59°   Wind: 3mph
Humidity: 73%   Direction: 60°ENE
Pressure: 30.06"   Gusts: NA
Location:  29.67°S, 52.79°W
Report Text: SBSM 231000Z 06003KT 9999 FEW001 20/15 Q1018
Loading
Personal Weather Stations






























Interactive Weather Map
Tropical Storm Tracking
New forecast layout! Learn more

10-Day Weather Forecast

Advertisements
Track Severe Weather on mobile